Terminal Aerodrome Forecast
Issued by NWS North Platte, NE

Home | Current Version | Previous Version | Text Only | Print | Product List | Glossary On
Versions: 1 2 3 4 5 6 7 8 9 10 11 12
000
FTUS43 KLBF 100520
TAFLBF
TAF
KLBF 100520Z 1006/1106 27003KT P6SM SCT150
     FM101900 28013G20KT P6SM FEW150
     FM102300 33007KT P6SM SKC=

USA.gov is the U.S. government's official web portal to all federal, state and local government web resources and services.